sensor_id;sensor_type;location;lat;lon;timestamp;P1;P2;P0
72509;PMS5003;60532;56.114;40.350;2023-06-04T00:00:06;5.50;5.50;2.25
72509;PMS5003;60532;56.114;40.350;2023-06-04T00:02:09;7.00;4.60;2.00
72509;PMS5003;60532;56.114;40.350;2023-06-04T00:04:09;7.00;5.00;3.00
72509;PMS5003;60532;56.114;40.350;2023-06-04T00:06:13;7.20;5.20;2.60
72509;PMS5003;60532;56.114;40.350;2023-06-04T00:08:13;5.25;5.25;3.25
72509;PMS5003;60532;56.114;40.350;2023-06-04T00:10:14;6.25;6.25;3.00
72509;PMS5003;60532;56.114;40.350;2023-06-04T00:12:14;8.50;6.50;3.00
72509;PMS5003;60532;56.114;40.350;2023-06-04T00:14:15;6.00;6.00;2.75
72509;PMS5003;60532;56.114;40.350;2023-06-04T00:16:16;5.80;5.80;2.60
72509;PMS5003;60532;56.114;40.350;2023-06-04T00:18:16;2.25;2.25;0.50
72509;PMS5003;60532;56.114;40.350;2023-06-04T00:20:17;2.75;2.75;2.00
72509;PMS5003;60532;56.114;40.350;2023-06-04T00:22:18;8.60;7.00;3.00
72509;PMS5003;60532;56.114;40.350;2023-06-04T00:24:18;7.00;7.00;3.00
72509;PMS5003;60532;56.114;40.350;2023-06-04T00:26:19;4.00;4.00;2.00
72509;PMS5003;60532;56.114;40.350;2023-06-04T00:28:20;4.00;4.00;2.00
72509;PMS5003;60532;56.114;40.350;2023-06-04T00:30:21;7.40;7.20;3.20
72509;PMS5003;60532;56.114;40.350;2023-06-04T00:32:22;6.25;6.25;3.00
72509;PMS5003;60532;56.114;40.350;2023-06-04T00:34:22;8.75;6.25;3.00
72509;PMS5003;60532;56.114;40.350;2023-06-04T00:36:23;8.75;6.00;3.00
72509;PMS5003;60532;56.114;40.350;2023-06-04T00:38:24;6.50;6.00;3.00
72509;PMS5003;60532;56.114;40.350;2023-06-04T00:40:24;4.00;4.00;3.00
72509;PMS5003;60532;56.114;40.350;2023-06-04T00:42:25;6.50;6.00;2.00
72509;PMS5003;60532;56.114;40.350;2023-06-04T00:44:25;9.00;6.75;2.00
72509;PMS5003;60532;56.114;40.350;2023-06-04T00:46:27;6.00;4.40;2.40
72509;PMS5003;60532;56.114;40.350;2023-06-04T00:48:28;3.80;3.80;2.00
72509;PMS5003;60532;56.114;40.350;2023-06-04T00:50:30;6.40;4.80;2.40
72509;PMS5003;60532;56.114;40.350;2023-06-04T00:52:33;6.20;5.80;3.00
72509;PMS5003;60532;56.114;40.350;2023-06-04T00:54:34;7.25;7.25;3.00
72509;PMS5003;60532;56.114;40.350;2023-06-04T00:56:35;6.00;3.80;1.20
72509;PMS5003;60532;56.114;40.350;2023-06-04T00:58:37;6.20;5.00;2.80
72509;PMS5003;60532;56.114;40.350;2023-06-04T01:00:39;8.20;7.20;2.20
72509;PMS5003;60532;56.114;40.350;2023-06-04T01:02:43;1.00;0.50;0.50
72509;PMS5003;60532;56.114;40.350;2023-06-04T01:06:45;6.00;3.25;2.00
72509;PMS5003;60532;56.114;40.350;2023-06-04T01:08:49;6.60;4.20;2.20
72509;PMS5003;60532;56.114;40.350;2023-06-04T01:10:54;6.00;4.00;2.00
72509;PMS5003;60532;56.114;40.350;2023-06-04T01:12:55;6.60;5.40;3.20
72509;PMS5003;60532;56.114;40.350;2023-06-04T01:14:56;8.50;6.25;3.50
72509;PMS5003;60532;56.114;40.350;2023-06-04T01:16:58;5.25;4.50;2.00
72509;PMS5003;60532;56.114;40.350;2023-06-04T01:19:02;9.00;7.40;3.00
72509;PMS5003;60532;56.114;40.350;2023-06-04T01:21:08;6.20;6.20;1.60
72509;PMS5003;60532;56.114;40.350;2023-06-04T01:25:13;6.40;6.40;3.40
72509;PMS5003;60532;56.114;40.350;2023-06-04T01:27:19;7.60;3.80;2.60
72509;PMS5003;60532;56.114;40.350;2023-06-04T01:29:20;6.80;6.80;3.00
72509;PMS5003;60532;56.114;40.350;2023-06-04T01:31:21;8.00;5.00;2.75
72509;PMS5003;60532;56.114;40.350;2023-06-04T01:33:23;6.00;6.00;2.80
72509;PMS5003;60532;56.114;40.350;2023-06-04T01:35:23;7.25;6.25;3.00
72509;PMS5003;60532;56.114;40.350;2023-06-04T01:37:24;7.25;7.00;2.00
72509;PMS5003;60532;56.114;40.350;2023-06-04T01:39:24;6.75;6.50;3.00
72509;PMS5003;60532;56.114;40.350;2023-06-04T01:41:25;9.50;7.75;3.00
72509;PMS5003;60532;56.114;40.350;2023-06-04T01:43:25;6.75;6.75;2.25
72509;PMS5003;60532;56.114;40.350;2023-06-04T01:45:26;4.50;4.25;2.00
72509;PMS5003;60532;56.114;40.350;2023-06-04T01:47:27;8.80;7.80;3.00
72509;PMS5003;60532;56.114;40.350;2023-06-04T01:49:28;4.25;4.25;2.25
72509;PMS5003;60532;56.114;40.350;2023-06-04T01:51:28;6.50;6.50;3.00
72509;PMS5003;60532;56.114;40.350;2023-06-04T01:53:29;4.50;3.00;3.00
72509;PMS5003;60532;56.114;40.350;2023-06-04T01:55:30;5.40;5.00;2.80
72509;PMS5003;60532;56.114;40.350;2023-06-04T01:57:33;5.80;5.80;2.00
72509;PMS5003;60532;56.114;40.350;2023-06-04T01:59:35;4.40;4.40;2.80
72509;PMS5003;60532;56.114;40.350;2023-06-04T02:01:36;6.60;4.20;2.40
72509;PMS5003;60532;56.114;40.350;2023-06-04T02:03:37;3.75;3.75;2.00
72509;PMS5003;60532;56.114;40.350;2023-06-04T02:05:37;3.25;3.00;2.00
72509;PMS5003;60532;56.114;40.350;2023-06-04T02:07:38;9.25;7.00;3.25
72509;PMS5003;60532;56.114;40.350;2023-06-04T02:09:39;4.40;4.40;2.40
72509;PMS5003;60532;56.114;40.350;2023-06-04T02:11:40;6.00;4.25;2.75
72509;PMS5003;60532;56.114;40.350;2023-06-04T02:13:40;8.00;6.50;3.00
72509;PMS5003;60532;56.114;40.350;2023-06-04T02:15:41;5.00;5.00;3.25
72509;PMS5003;60532;56.114;40.350;2023-06-04T02:17:41;3.00;3.00;2.00
72509;PMS5003;60532;56.114;40.350;2023-06-04T02:19:43;5.00;4.40;2.00
72509;PMS5003;60532;56.114;40.350;2023-06-04T02:21:51;8.00;5.60;2.60
72509;PMS5003;60532;56.114;40.350;2023-06-04T02:23:52;7.00;5.00;2.60
72509;PMS5003;60532;56.114;40.350;2023-06-04T02:25:52;5.00;4.75;3.00
72509;PMS5003;60532;56.114;40.350;2023-06-04T02:27:53;4.50;4.50;3.25
72509;PMS5003;60532;56.114;40.350;2023-06-04T02:29:53;7.00;5.00;3.00
72509;PMS5003;60532;56.114;40.350;2023-06-04T02:31:54;4.00;4.00;3.00
72509;PMS5003;60532;56.114;40.350;2023-06-04T02:33:55;3.25;3.00;2.00
72509;PMS5003;60532;56.114;40.350;2023-06-04T02:35:56;2.60;2.60;2.00
72509;PMS5003;60532;56.114;40.350;2023-06-04T02:37:56;5.00;4.00;2.00
72509;PMS5003;60532;56.114;40.350;2023-06-04T02:39:58;4.80;4.00;2.00
72509;PMS5003;60532;56.114;40.350;2023-06-04T02:41:58;5.25;4.25;2.25
72509;PMS5003;60532;56.114;40.350;2023-06-04T02:43:59;4.25;4.25;2.25
72509;PMS5003;60532;56.114;40.350;2023-06-04T02:45:59;5.50;4.00;3.00
72509;PMS5003;60532;56.114;40.350;2023-06-04T02:48:00;3.25;3.25;2.00
72509;PMS5003;60532;56.114;40.350;2023-06-04T02:50:00;4.00;4.00;2.00
72509;PMS5003;60532;56.114;40.350;2023-06-04T02:52:01;5.75;3.75;2.00
72509;PMS5003;60532;56.114;40.350;2023-06-04T02:54:01;4.67;4.67;3.00
72509;PMS5003;60532;56.114;40.350;2023-06-04T02:56:03;4.00;4.00;2.00
72509;PMS5003;60532;56.114;40.350;2023-06-04T02:58:03;4.67;4.00;2.00
72509;PMS5003;60532;56.114;40.350;2023-06-04T03:00:04;3.33;3.33;2.00
72509;PMS5003;60532;56.114;40.350;2023-06-04T03:02:12;5.25;4.75;2.00
72509;PMS5003;60532;56.114;40.350;2023-06-04T03:04:12;4.67;4.67;2.00
72509;PMS5003;60532;56.114;40.350;2023-06-04T03:06:15;3.50;3.50;2.00
72509;PMS5003;60532;56.114;40.350;2023-06-04T03:08:16;3.50;3.50;1.00
72509;PMS5003;60532;56.114;40.350;2023-06-04T03:10:16;2.00;2.00;1.00
72509;PMS5003;60532;56.114;40.350;2023-06-04T03:12:17;5.67;5.67;2.00
72509;PMS5003;60532;56.114;40.350;2023-06-04T03:14:18;3.67;3.67;2.00
72509;PMS5003;60532;56.114;40.350;2023-06-04T03:16:18;3.67;3.33;2.00
72509;PMS5003;60532;56.114;40.350;2023-06-04T03:18:19;4.75;3.75;2.50
72509;PMS5003;60532;56.114;40.350;2023-06-04T03:20:20;4.25;3.25;1.75
72509;PMS5003;60532;56.114;40.350;2023-06-04T03:22:24;3.00;3.00;1.25
72509;PMS5003;60532;56.114;40.350;2023-06-04T03:24:24;3.00;3.00;1.00
72509;PMS5003;60532;56.114;40.350;2023-06-04T03:26:25;3.00;3.00;2.00
72509;PMS5003;60532;56.114;40.350;2023-06-04T03:28:26;4.25;2.75;1.75
72509;PMS5003;60532;56.114;40.350;2023-06-04T03:30:27;4.00;2.00;1.00
72509;PMS5003;60532;56.114;40.350;2023-06-04T03:32:27;2.00;2.00;0.00
72509;PMS5003;60532;56.114;40.350;2023-06-04T03:34:28;3.33;3.33;1.33
72509;PMS5003;60532;56.114;40.350;2023-06-04T03:36:31;3.00;2.60;1.80
72509;PMS5003;60532;56.114;40.350;2023-06-04T03:38:31;3.25;1.75;0.75
72509;PMS5003;60532;56.114;40.350;2023-06-04T03:40:32;2.00;2.00;0.75
72509;PMS5003;60532;56.114;40.350;2023-06-04T03:42:32;4.75;4.25;1.75
72509;PMS5003;60532;56.114;40.350;2023-06-04T03:44:33;2.25;2.25;0.00
72509;PMS5003;60532;56.114;40.350;2023-06-04T03:46:33;2.50;2.50;1.75
72509;PMS5003;60532;56.114;40.350;2023-06-04T03:48:34;2.50;1.00;1.00
72509;PMS5003;60532;56.114;40.350;2023-06-04T03:50:34;3.00;3.00;1.00
72509;PMS5003;60532;56.114;40.350;2023-06-04T03:52:35;1.80;1.80;0.80
72509;PMS5003;60532;56.114;40.350;2023-06-04T03:54:36;2.00;2.00;0.00
72509;PMS5003;60532;56.114;40.350;2023-06-04T03:56:36;1.25;1.25;0.00
72509;PMS5003;60532;56.114;40.350;2023-06-04T03:58:37;1.00;1.00;0.75
72509;PMS5003;60532;56.114;40.350;2023-06-04T04:00:37;1.75;1.75;0.75
72509;PMS5003;60532;56.114;40.350;2023-06-04T04:02:41;1.75;1.75;0.75
72509;PMS5003;60532;56.114;40.350;2023-06-04T04:04:41;3.00;3.00;1.00
72509;PMS5003;60532;56.114;40.350;2023-06-04T04:06:42;1.00;1.00;1.00
72509;PMS5003;60532;56.114;40.350;2023-06-04T04:08:42;2.75;1.50;0.75
72509;PMS5003;60532;56.114;40.350;2023-06-04T04:10:44;2.40;2.40;1.80
72509;PMS5003;60532;56.114;40.350;2023-06-04T04:12:44;0.80;0.80;0.20
72509;PMS5003;60532;56.114;40.350;2023-06-04T04:14:45;1.00;1.00;0.25
72509;PMS5003;60532;56.114;40.350;2023-06-04T04:16:47;0.00;0.00;0.00
72509;PMS5003;60532;56.114;40.350;2023-06-04T04:18:47;2.50;1.00;0.75
72509;PMS5003;60532;56.114;40.350;2023-06-04T04:20:48;0.00;0.00;0.00
72509;PMS5003;60532;56.114;40.350;2023-06-04T04:22:48;1.00;1.00;0.00
72509;PMS5003;60532;56.114;40.350;2023-06-04T04:24:50;1.00;1.00;0.20
72509;PMS5003;60532;56.114;40.350;2023-06-04T04:26:50;1.25;1.25;0.75
72509;PMS5003;60532;56.114;40.350;2023-06-04T04:28:54;1.00;1.00;0.00
72509;PMS5003;60532;56.114;40.350;2023-06-04T04:30:58;3.00;1.40;0.20
72509;PMS5003;60532;56.114;40.350;2023-06-04T04:33:02;2.60;2.60;0.80
72509;PMS5003;60532;56.114;40.350;2023-06-04T04:35:05;1.00;1.00;0.00
72509;PMS5003;60532;56.114;40.350;2023-06-04T04:37:08;1.80;1.80;0.40
72509;PMS5003;60532;56.114;40.350;2023-06-04T04:39:09;1.00;1.00;0.00
72509;PMS5003;60532;56.114;40.350;2023-06-04T04:41:10;1.80;1.80;0.80
72509;PMS5003;60532;56.114;40.350;2023-06-04T04:43:11;1.00;1.00;0.00
72509;PMS5003;60532;56.114;40.350;2023-06-04T04:45:12;1.00;1.00;0.00
72509;PMS5003;60532;56.114;40.350;2023-06-04T04:47:16;0.00;0.00;0.00
72509;PMS5003;60532;56.114;40.350;2023-06-04T04:49:16;1.80;1.80;0.80
72509;PMS5003;60532;56.114;40.350;2023-06-04T04:51:17;1.00;1.00;0.00
72509;PMS5003;60532;56.114;40.350;2023-06-04T04:53:18;2.60;1.60;0.40
72509;PMS5003;60532;56.114;40.350;2023-06-04T04:55:18;3.25;0.25;0.00
72509;PMS5003;60532;56.114;40.350;2023-06-04T04:57:19;1.00;1.00;0.00
72509;PMS5003;60532;56.114;40.350;2023-06-04T04:59:19;0.00;0.00;0.00
72509;PMS5003;60532;56.114;40.350;2023-06-04T05:01:21;1.20;0.00;0.00
72509;PMS5003;60532;56.114;40.350;2023-06-04T05:03:21;0.20;0.20;0.00
72509;PMS5003;60532;56.114;40.350;2023-06-04T05:05:22;0.75;0.75;0.00
72509;PMS5003;60532;56.114;40.350;2023-06-04T05:07:22;1.25;0.50;0.00
72509;PMS5003;60532;56.114;40.350;2023-06-04T05:09:25;1.00;0.00;0.00
72509;PMS5003;60532;56.114;40.350;2023-06-04T05:11:25;0.00;0.00;0.00
72509;PMS5003;60532;56.114;40.350;2023-06-04T05:13:26;0.00;0.00;0.00
72509;PMS5003;60532;56.114;40.350;2023-06-04T05:15:26;0.00;0.00;0.00
72509;PMS5003;60532;56.114;40.350;2023-06-04T05:17:27;0.00;0.00;0.00
72509;PMS5003;60532;56.114;40.350;2023-06-04T05:19:30;0.40;0.40;0.00
72509;PMS5003;60532;56.114;40.350;2023-06-04T05:21:32;1.80;1.80;0.80
72509;PMS5003;60532;56.114;40.350;2023-06-04T05:23:33;0.75;0.75;0.50
72509;PMS5003;60532;56.114;40.350;2023-06-04T05:25:37;0.00;0.00;0.00
72509;PMS5003;60532;56.114;40.350;2023-06-04T05:27:37;2.00;1.00;0.00
72509;PMS5003;60532;56.114;40.350;2023-06-04T05:29:38;0.80;0.80;0.00
72509;PMS5003;60532;56.114;40.350;2023-06-04T05:31:39;2.25;1.75;0.75
72509;PMS5003;60532;56.114;40.350;2023-06-04T05:33:39;0.60;0.60;0.00
72509;PMS5003;60532;56.114;40.350;2023-06-04T05:35:40;1.50;1.50;0.50
72509;PMS5003;60532;56.114;40.350;2023-06-04T05:37:42;0.20;0.20;0.00
72509;PMS5003;60532;56.114;40.350;2023-06-04T05:39:45;0.00;0.00;0.00
72509;PMS5003;60532;56.114;40.350;2023-06-04T05:41:47;1.00;0.00;0.00
72509;PMS5003;60532;56.114;40.350;2023-06-04T05:43:47;0.50;0.50;0.00
72509;PMS5003;60532;56.114;40.350;2023-06-04T05:45:48;0.00;0.00;0.00
72509;PMS5003;60532;56.114;40.350;2023-06-04T05:47:48;0.50;0.50;0.00
72509;PMS5003;60532;56.114;40.350;2023-06-04T05:49:49;1.00;1.00;0.00
72509;PMS5003;60532;56.114;40.350;2023-06-04T05:51:50;1.20;1.20;0.80
72509;PMS5003;60532;56.114;40.350;2023-06-04T05:53:51;1.00;0.75;0.75
72509;PMS5003;60532;56.114;40.350;2023-06-04T05:55:51;1.25;0.75;0.00
72509;PMS5003;60532;56.114;40.350;2023-06-04T05:57:51;1.00;0.00;0.00
72509;PMS5003;60532;56.114;40.350;2023-06-04T05:59:52;3.00;1.75;0.50
72509;PMS5003;60532;56.114;40.350;2023-06-04T06:01:52;0.50;0.00;0.00
72509;PMS5003;60532;56.114;40.350;2023-06-04T06:03:54;0.50;0.50;0.00
72509;PMS5003;60532;56.114;40.350;2023-06-04T06:05:54;0.80;0.80;0.00
72509;PMS5003;60532;56.114;40.350;2023-06-04T06:07:57;1.00;1.00;0.00
72509;PMS5003;60532;56.114;40.350;2023-06-04T06:09:57;0.75;0.75;0.00
72509;PMS5003;60532;56.114;40.350;2023-06-04T06:11:58;0.00;0.00;0.00
72509;PMS5003;60532;56.114;40.350;2023-06-04T06:13:58;0.00;0.00;0.00
72509;PMS5003;60532;56.114;40.350;2023-06-04T06:15:59;0.75;0.75;0.75
72509;PMS5003;60532;56.114;40.350;2023-06-04T06:17:59;2.00;0.50;0.00
72509;PMS5003;60532;56.114;40.350;2023-06-04T06:20:00;1.25;0.50;0.00
72509;PMS5003;60532;56.114;40.350;2023-06-04T06:22:01;0.00;0.00;0.00
72509;PMS5003;60532;56.114;40.350;2023-06-04T06:24:03;0.80;0.80;0.00
72509;PMS5003;60532;56.114;40.350;2023-06-04T06:26:04;1.00;1.00;0.00
72509;PMS5003;60532;56.114;40.350;2023-06-04T06:28:08;1.00;1.00;0.00
72509;PMS5003;60532;56.114;40.350;2023-06-04T06:30:08;0.50;0.50;0.00
72509;PMS5003;60532;56.114;40.350;2023-06-04T06:32:12;1.80;1.80;0.60
72509;PMS5003;60532;56.114;40.350;2023-06-04T06:34:13;0.75;0.75;0.75
72509;PMS5003;60532;56.114;40.350;2023-06-04T06:36:13;2.75;1.75;0.75
72509;PMS5003;60532;56.114;40.350;2023-06-04T06:38:14;2.00;2.00;1.00
72509;PMS5003;60532;56.114;40.350;2023-06-04T06:40:14;3.00;3.00;2.00
72509;PMS5003;60532;56.114;40.350;2023-06-04T06:42:15;7.00;5.00;3.67
72509;PMS5003;60532;56.114;40.350;2023-06-04T06:44:17;7.00;5.75;3.00
72509;PMS5003;60532;56.114;40.350;2023-06-04T06:46:17;3.67;3.67;1.67
72509;PMS5003;60532;56.114;40.350;2023-06-04T06:48:18;5.00;4.00;2.00
72509;PMS5003;60532;56.114;40.350;2023-06-04T06:50:18;2.00;2.00;1.67
72509;PMS5003;60532;56.114;40.350;2023-06-04T06:52:19;3.00;1.00;1.00
72509;PMS5003;60532;56.114;40.350;2023-06-04T06:54:20;1.00;1.00;1.00
72509;PMS5003;60532;56.114;40.350;2023-06-04T06:56:21;1.25;1.25;0.50
72509;PMS5003;60532;56.114;40.350;2023-06-04T06:58:22;1.00;1.00;1.00
72509;PMS5003;60532;56.114;40.350;2023-06-04T07:00:23;2.00;2.00;1.00
72509;PMS5003;60532;56.114;40.350;2023-06-04T07:02:24;1.00;1.00;0.00
72509;PMS5003;60532;56.114;40.350;2023-06-04T07:04:25;1.00;1.00;0.75
72509;PMS5003;60532;56.114;40.350;2023-06-04T07:06:26;1.25;1.25;0.00
72509;PMS5003;60532;56.114;40.350;2023-06-04T07:08:26;0.67;0.67;0.00
72509;PMS5003;60532;56.114;40.350;2023-06-04T07:10:29;1.50;1.50;0.75
72509;PMS5003;60532;56.114;40.350;2023-06-04T07:12:29;1.00;1.00;1.00
72509;PMS5003;60532;56.114;40.350;2023-06-04T07:14:30;2.00;2.00;1.00
72509;PMS5003;60532;56.114;40.350;2023-06-04T07:16:30;1.33;0.00;0.00
72509;PMS5003;60532;56.114;40.350;2023-06-04T07:18:31;1.00;1.00;0.00
72509;PMS5003;60532;56.114;40.350;2023-06-04T07:20:32;2.00;2.00;1.00
72509;PMS5003;60532;56.114;40.350;2023-06-04T07:22:34;1.00;1.00;0.33
72509;PMS5003;60532;56.114;40.350;2023-06-04T07:24:34;0.25;0.25;0.00
72509;PMS5003;60532;56.114;40.350;2023-06-04T07:26:35;0.67;0.33;0.00
72509;PMS5003;60532;56.114;40.350;2023-06-04T07:28:37;2.00;2.00;1.00
72509;PMS5003;60532;56.114;40.350;2023-06-04T07:30:39;0.00;0.00;0.00
72509;PMS5003;60532;56.114;40.350;2023-06-04T07:32:40;1.00;1.00;1.00
72509;PMS5003;60532;56.114;40.350;2023-06-04T07:34:41;1.00;1.00;0.00
72509;PMS5003;60532;56.114;40.350;2023-06-04T07:36:41;0.75;0.75;0.00
72509;PMS5003;60532;56.114;40.350;2023-06-04T07:38:42;0.33;0.33;0.00
72509;PMS5003;60532;56.114;40.350;2023-06-04T07:40:45;1.50;1.50;0.50
72509;PMS5003;60532;56.114;40.350;2023-06-04T07:42:46;3.00;2.00;1.00
72509;PMS5003;60532;56.114;40.350;2023-06-04T07:44:47;3.00;3.00;1.00
72509;PMS5003;60532;56.114;40.350;2023-06-04T07:46:48;1.50;1.00;1.00
72509;PMS5003;60532;56.114;40.350;2023-06-04T07:48:49;1.50;1.50;0.50
72509;PMS5003;60532;56.114;40.350;2023-06-04T07:50:50;4.25;1.25;1.00
72509;PMS5003;60532;56.114;40.350;2023-06-04T07:52:51;2.00;2.00;0.75
72509;PMS5003;60532;56.114;40.350;2023-06-04T07:54:53;2.75;2.00;1.00
72509;PMS5003;60532;56.114;40.350;2023-06-04T07:56:54;2.00;2.00;1.00
72509;PMS5003;60532;56.114;40.350;2023-06-04T07:58:56;3.00;3.00;1.50
72509;PMS5003;60532;56.114;40.350;2023-06-04T08:00:57;1.75;1.75;1.00
72509;PMS5003;60532;56.114;40.350;2023-06-04T08:02:58;3.33;3.33;1.00
72509;PMS5003;60532;56.114;40.350;2023-06-04T08:05:00;2.25;2.25;1.00
72509;PMS5003;60532;56.114;40.350;2023-06-04T08:07:02;2.60;2.60;1.40
72509;PMS5003;60532;56.114;40.350;2023-06-04T08:09:03;2.00;2.00;1.00
72509;PMS5003;60532;56.114;40.350;2023-06-04T08:11:04;3.50;3.50;1.00
72509;PMS5003;60532;56.114;40.350;2023-06-04T08:13:05;2.20;2.20;1.00
72509;PMS5003;60532;56.114;40.350;2023-06-04T08:15:06;2.75;2.00;1.00
72509;PMS5003;60532;56.114;40.350;2023-06-04T08:17:08;2.75;1.50;1.00
72509;PMS5003;60532;56.114;40.350;2023-06-04T08:19:09;2.50;2.50;1.00
72509;PMS5003;60532;56.114;40.350;2023-06-04T08:21:10;1.00;1.00;1.00
72509;PMS5003;60532;56.114;40.350;2023-06-04T08:23:11;1.25;1.25;1.00
72509;PMS5003;60532;56.114;40.350;2023-06-04T08:25:12;3.40;2.00;2.00
72509;PMS5003;60532;56.114;40.350;2023-06-04T08:27:14;1.00;1.00;1.00
72509;PMS5003;60532;56.114;40.350;2023-06-04T08:29:15;3.60;2.00;1.00
72509;PMS5003;60532;56.114;40.350;2023-06-04T08:31:16;3.00;2.00;0.80
72509;PMS5003;60532;56.114;40.350;2023-06-04T08:33:17;2.20;2.00;1.20
72509;PMS5003;60532;56.114;40.350;2023-06-04T08:35:18;1.00;1.00;1.00
72509;PMS5003;60532;56.114;40.350;2023-06-04T08:37:19;1.75;1.75;1.00
72509;PMS5003;60532;56.114;40.350;2023-06-04T08:39:20;2.00;2.00;1.00
72509;PMS5003;60532;56.114;40.350;2023-06-04T08:41:45;1.00;1.00;1.00
72509;PMS5003;60532;56.114;40.350;2023-06-04T08:43:44;1.00;1.00;0.40
72509;PMS5003;60532;56.114;40.350;2023-06-04T08:45:48;3.40;2.00;1.00
72509;PMS5003;60532;56.114;40.350;2023-06-04T08:47:55;2.40;2.00;1.00
72509;PMS5003;60532;56.114;40.350;2023-06-04T08:49:59;1.80;1.80;1.00
72509;PMS5003;60532;56.114;40.350;2023-06-04T08:52:00;2.80;2.00;1.00
72509;PMS5003;60532;56.114;40.350;2023-06-04T08:54:01;4.00;2.80;2.00
72509;PMS5003;60532;56.114;40.350;2023-06-04T08:56:03;1.80;1.80;1.00
72509;PMS5003;60532;56.114;40.350;2023-06-04T08:58:04;1.00;1.00;1.00
72509;PMS5003;60532;56.114;40.350;2023-06-04T09:00:08;2.80;1.80;1.00
72509;PMS5003;60532;56.114;40.350;2023-06-04T09:02:09;1.00;1.00;0.00
72509;PMS5003;60532;56.114;40.350;2023-06-04T09:04:11;3.20;2.60;1.00
72509;PMS5003;60532;56.114;40.350;2023-06-04T09:06:12;2.00;2.00;1.00
72509;PMS5003;60532;56.114;40.350;2023-06-04T09:08:13;1.80;1.80;1.00
72509;PMS5003;60532;56.114;40.350;2023-06-04T09:10:18;2.40;2.40;1.80
72509;PMS5003;60532;56.114;40.350;2023-06-04T09:12:21;2.00;2.00;1.00
72509;PMS5003;60532;56.114;40.350;2023-06-04T09:14:24;2.80;2.00;1.00
72509;PMS5003;60532;56.114;40.350;2023-06-04T09:16:24;1.80;1.80;1.00
72509;PMS5003;60532;56.114;40.350;2023-06-04T09:18:25;2.00;2.00;1.00
72509;PMS5003;60532;56.114;40.350;2023-06-04T09:20:28;1.60;1.60;1.00
72509;PMS5003;60532;56.114;40.350;2023-06-04T09:22:38;2.00;2.00;1.00
72509;PMS5003;60532;56.114;40.350;2023-06-04T09:24:42;3.00;3.00;1.00
72509;PMS5003;60532;56.114;40.350;2023-06-04T09:26:46;2.40;2.00;1.00
72509;PMS5003;60532;56.114;40.350;2023-06-04T09:28:47;1.80;1.80;1.00
72509;PMS5003;60532;56.114;40.350;2023-06-04T09:30:51;2.00;2.00;1.00
72509;PMS5003;60532;56.114;40.350;2023-06-04T09:32:53;2.00;2.00;1.00
72509;PMS5003;60532;56.114;40.350;2023-06-04T09:34:55;2.80;2.00;1.00
72509;PMS5003;60532;56.114;40.350;2023-06-04T09:36:57;1.00;1.00;1.00
72509;PMS5003;60532;56.114;40.350;2023-06-04T09:38:58;1.60;1.00;0.00
72509;PMS5003;60532;56.114;40.350;2023-06-04T09:40:59;2.00;2.00;1.00
72509;PMS5003;60532;56.114;40.350;2023-06-04T09:43:01;2.00;2.00;0.80
72509;PMS5003;60532;56.114;40.350;2023-06-04T09:45:03;2.20;2.00;1.00
72509;PMS5003;60532;56.114;40.350;2023-06-04T09:47:04;2.00;1.60;0.80
72509;PMS5003;60532;56.114;40.350;2023-06-04T09:49:05;2.00;2.00;1.00
72509;PMS5003;60532;56.114;40.350;2023-06-04T09:51:10;2.20;1.00;0.00
72509;PMS5003;60532;56.114;40.350;2023-06-04T09:53:18;2.40;1.20;0.00
72509;PMS5003;60532;56.114;40.350;2023-06-04T09:55:22;2.40;2.20;0.00
72509;PMS5003;60532;56.114;40.350;2023-06-04T09:57:23;2.00;2.00;0.00
72509;PMS5003;60532;56.114;40.350;2023-06-04T09:59:25;1.60;1.20;0.60
72509;PMS5003;60532;56.114;40.350;2023-06-04T10:01:29;1.00;1.00;0.00
72509;PMS5003;60532;56.114;40.350;2023-06-04T10:03:31;0.80;0.80;0.00
72509;PMS5003;60532;56.114;40.350;2023-06-04T10:05:33;1.60;1.00;1.00
72509;PMS5003;60532;56.114;40.350;2023-06-04T10:07:34;1.40;1.40;1.00
72509;PMS5003;60532;56.114;40.350;2023-06-04T10:09:38;2.60;1.00;0.00
72509;PMS5003;60532;56.114;40.350;2023-06-04T10:11:53;1.20;1.20;0.80
72509;PMS5003;60532;56.114;40.350;2023-06-04T10:14:00;2.00;1.40;1.00
72509;PMS5003;60532;56.114;40.350;2023-06-04T10:16:02;2.20;2.00;1.00
72509;PMS5003;60532;56.114;40.350;2023-06-04T10:18:03;1.80;1.00;1.00
72509;PMS5003;60532;56.114;40.350;2023-06-04T10:20:08;1.00;1.00;0.20
72509;PMS5003;60532;56.114;40.350;2023-06-04T10:22:09;1.20;1.20;1.00
72509;PMS5003;60532;56.114;40.350;2023-06-04T10:24:12;1.60;1.40;1.00
72509;PMS5003;60532;56.114;40.350;2023-06-04T10:26:14;3.00;1.60;1.00
72509;PMS5003;60532;56.114;40.350;2023-06-04T10:28:15;1.20;1.00;0.00
72509;PMS5003;60532;56.114;40.350;2023-06-04T10:30:17;2.00;2.00;1.00
72509;PMS5003;60532;56.114;40.350;2023-06-04T10:32:18;4.80;2.00;1.00
72509;PMS5003;60532;56.114;40.350;2023-06-04T10:34:19;1.00;1.00;1.00
72509;PMS5003;60532;56.114;40.350;2023-06-04T10:36:20;5.80;2.20;1.00
72509;PMS5003;60532;56.114;40.350;2023-06-04T10:38:21;1.00;1.00;0.00
72509;PMS5003;60532;56.114;40.350;2023-06-04T10:40:30;2.00;2.00;1.00
72509;PMS5003;60532;56.114;40.350;2023-06-04T10:42:37;2.00;2.00;0.60
72509;PMS5003;60532;56.114;40.350;2023-06-04T10:44:52;3.00;1.40;1.00
72509;PMS5003;60532;56.114;40.350;2023-06-04T10:46:52;0.40;0.40;0.00
72509;PMS5003;60532;56.114;40.350;2023-06-04T10:48:53;1.50;1.50;1.00
72509;PMS5003;60532;56.114;40.350;2023-06-04T10:50:54;2.00;1.25;1.00
72509;PMS5003;60532;56.114;40.350;2023-06-04T10:52:55;1.00;1.00;0.50
72509;PMS5003;60532;56.114;40.350;2023-06-04T10:55:02;1.40;1.40;1.00
72509;PMS5003;60532;56.114;40.350;2023-06-04T10:57:16;1.20;1.00;1.00
72509;PMS5003;60532;56.114;40.350;2023-06-04T10:59:17;2.00;2.00;1.00
72509;PMS5003;60532;56.114;40.350;2023-06-04T11:01:28;2.00;2.00;1.00
72509;PMS5003;60532;56.114;40.350;2023-06-04T11:03:38;1.40;1.40;1.00
72509;PMS5003;60532;56.114;40.350;2023-06-04T11:05:39;2.40;2.40;1.00
72509;PMS5003;60532;56.114;40.350;2023-06-04T11:07:41;1.80;1.80;1.00
72509;PMS5003;60532;56.114;40.350;2023-06-04T11:09:50;1.00;1.00;0.60
72509;PMS5003;60532;56.114;40.350;2023-06-04T11:11:57;1.20;1.20;1.00
72509;PMS5003;60532;56.114;40.350;2023-06-04T11:14:09;1.20;1.20;1.00
72509;PMS5003;60532;56.114;40.350;2023-06-04T11:16:17;1.20;1.20;1.00
72509;PMS5003;60532;56.114;40.350;2023-06-04T11:18:19;2.00;1.20;1.00
72509;PMS5003;60532;56.114;40.350;2023-06-04T11:20:21;1.60;1.60;0.60
72509;PMS5003;60532;56.114;40.350;2023-06-04T11:22:23;1.00;1.00;0.00
72509;PMS5003;60532;56.114;40.350;2023-06-04T11:24:24;1.20;1.20;0.80
72509;PMS5003;60532;56.114;40.350;2023-06-04T11:26:34;2.00;2.00;1.00
72509;PMS5003;60532;56.114;40.350;2023-06-04T11:28:35;1.00;1.00;1.00
72509;PMS5003;60532;56.114;40.350;2023-06-04T11:30:36;2.00;2.00;1.00
72509;PMS5003;60532;56.114;40.350;2023-06-04T11:32:37;0.75;0.75;0.00
72509;PMS5003;60532;56.114;40.350;2023-06-04T11:34:38;1.80;1.00;0.60
72509;PMS5003;60532;56.114;40.350;2023-06-04T11:36:39;1.00;1.00;1.00
72509;PMS5003;60532;56.114;40.350;2023-06-04T11:38:40;0.40;0.40;0.20
72509;PMS5003;60532;56.114;40.350;2023-06-04T11:40:40;2.00;1.00;0.00
72509;PMS5003;60532;56.114;40.350;2023-06-04T11:42:44;1.40;0.80;0.00
72509;PMS5003;60532;56.114;40.350;2023-06-04T11:44:45;2.00;2.00;0.80